Terminal Aerodrome Forecast
Issued by NWS Cleveland, OH

Home | Current Version | Previous Version | Text Only | Print | Product List | Glossary On
Versions: 1 2 3 4 5 6 7 8 9 10 11 12 13 14 15 16 17 18 19 20 21 22 23 24 25 26
000
FTUS41 KCLE 242322 AAA
TAFMFD
TAF AMD
KMFD 242322Z 2423/2524 26006KT P6SM SCT008 BKN015
      TEMPO 2500/2504 5SM BR OVC010
     FM250400 VRB05KT P6SM OVC010
     FM251500 18012G18KT P6SM BKN020=

USA.gov is the U.S. government's official web portal to all federal, state and local government web resources and services.